Time;durP1;ratioP1;P1;durP2;ratioP2;P2;SDS_P1;SDS_P2;PMS_P1;PMS_P2;Temp;Humidity;BMP_temperature;BMP_pressure;BME280_temperature;BME280_humidity;BME280_pressure;Samples;Min_cycle;Max_cycle;Signal;HPM_P1;HPM_P2
2023/10/30 00:28:13;;;;;;;;;;;17.90;90.50;;;;;;6095693;23;20336;-79
2023/10/30 00:30:39;;;;;;;;;;;18.10;92.70;;;;;;6124511;23;19944;-79
2023/10/30 00:33:05;;;;;;;;;;;17.90;92.70;;;;;;6124672;23;19901;-79
2023/10/30 00:35:31;;;;;;;;;;;17.80;92.60;;;;;;6124665;23;19917;-79
2023/10/30 00:37:57;;;;;;;;;;;17.90;92.70;;;;;;6124098;23;19992;-79
2023/10/30 00:40:24;;;;;;;;;;;17.80;92.80;;;;;;6124197;23;19916;-79
2023/10/30 00:42:50;;;;;;;;;;;17.90;92.60;;;;;;6124463;23;19900;-79
2023/10/30 00:45:17;;;;;;;;;;;17.80;92.80;;;;;;6125122;23;19967;-69
2023/10/30 00:47:42;;;;;;;;;;;17.90;92.70;;;;;;6124564;23;19980;-70
2023/10/30 00:50:09;;;;;;;;;;;17.80;92.70;;;;;;6124602;23;20327;-69
2023/10/30 00:52:35;;;;;;;;;;;17.60;92.00;;;;;;6124669;23;19907;-70
2023/10/30 00:55:00;;;;;;;;;;;17.70;92.60;;;;;;6124544;23;19972;-70
2023/10/30 00:57:26;;;;;;;;;;;17.80;92.70;;;;;;6124274;23;20337;-70
2023/10/30 00:59:53;;;;;;;;;;;17.70;92.80;;;;;;6124152;23;19996;-70
2023/10/30 01:02:19;;;;;;;;;;;17.70;92.50;;;;;;6123875;23;20358;-70
2023/10/30 01:04:45;;;;;;;;;;;17.70;92.50;;;;;;6124511;23;19900;-70
2023/10/30 01:07:11;;;;;;;;;;;17.70;92.70;;;;;;6124453;23;19924;-70
2023/10/30 01:09:38;;;;;;;;;;;;;;;;;;6124456;23;19905;-70
2023/10/30 01:12:04;;;;;;;;;;;17.70;91.70;;;;;;6123925;23;20338;-70
2023/10/30 01:14:30;;;;;;;;;;;17.70;92.40;;;;;;6124886;23;20377;-69
2023/10/30 01:16:56;;;;;;;;;;;17.70;92.70;;;;;;6124294;23;19909;-69
2023/10/30 01:19:22;;;;;;;;;;;17.70;92.50;;;;;;6124335;23;20350;-70
2023/10/30 01:21:47;;;;;;;;;;;17.70;92.70;;;;;;6124032;23;19963;-70
2023/10/30 01:24:13;;;;;;;;;;;17.60;92.50;;;;;;6124452;23;19901;-79
2023/10/30 01:26:39;;;;;;;;;;;17.70;92.60;;;;;;6124504;23;19908;-79
2023/10/30 01:29:05;;;;;;;;;;;17.60;92.50;;;;;;6123700;23;19913;-79
2023/10/30 01:31:31;;;;;;;;;;;17.60;92.60;;;;;;6124463;23;19941;-79
2023/10/30 01:33:57;;;;;;;;;;;17.50;92.60;;;;;;6124357;23;19904;-79
2023/10/30 01:36:23;;;;;;;;;;;17.60;92.70;;;;;;6124205;23;19901;-79
2023/10/30 01:38:49;;;;;;;;;;;17.50;92.60;;;;;;6124323;23;19908;-79
2023/10/30 01:41:15;;;;;;;;;;;17.70;92.70;;;;;;6124635;23;19923;-79
2023/10/30 01:43:41;;;;;;;;;;;17.60;92.70;;;;;;6124072;23;19901;-79
2023/10/30 01:46:07;;;;;;;;;;;17.60;92.60;;;;;;6123922;23;19904;-79
2023/10/30 01:48:34;;;;;;;;;;;17.60;92.60;;;;;;6124124;23;20322;-79
2023/10/30 01:51:00;;;;;;;;;;;17.60;92.80;;;;;;6124470;23;20249;-79
2023/10/30 01:53:27;;;;;;;;;;;17.80;93.00;;;;;;6123867;23;19901;-79
2023/10/30 01:55:54;;;;;;;;;;;17.50;92.70;;;;;;6123447;23;20342;-79
2023/10/30 01:58:21;;;;;;;;;;;17.50;92.80;;;;;;6123412;23;19966;-79
2023/10/30 02:00:47;;;;;;;;;;;17.50;92.80;;;;;;6123808;23;19905;-79
2023/10/30 02:03:13;;;;;;;;;;;17.50;92.50;;;;;;6123279;23;19901;-79
2023/10/30 02:05:39;;;;;;;;;;;17.50;92.60;;;;;;6123901;23;19901;-79
2023/10/30 02:08:05;;;;;;;;;;;17.50;92.70;;;;;;6123424;23;19900;-79
2023/10/30 02:10:32;;;;;;;;;;;17.50;92.70;;;;;;6124334;23;20401;-70
2023/10/30 02:12:58;;;;;;;;;;;17.50;92.60;;;;;;6123690;23;19933;-70
2023/10/30 02:15:24;;;;;;;;;;;17.60;92.70;;;;;;6123852;23;19908;-69
2023/10/30 02:17:50;;;;;;;;;;;17.70;92.70;;;;;;6123813;23;19916;-70
2023/10/30 02:20:16;;;;;;;;;;;17.60;92.70;;;;;;6123756;23;19972;-70
2023/10/30 02:22:41;;;;;;;;;;;17.40;92.60;;;;;;6123825;23;19905;-70
2023/10/30 02:25:07;;;;;;;;;;;17.50;92.70;;;;;;6123966;23;19964;-70
2023/10/30 02:27:33;;;;;;;;;;;17.40;92.60;;;;;;6123783;23;20041;-70
2023/10/30 02:29:59;;;;;;;;;;;17.50;92.70;;;;;;6123397;23;20326;-70
2023/10/30 02:32:25;;;;;;;;;;;17.50;92.70;;;;;;6123830;23;20255;-70
2023/10/30 02:34:51;;;;;;;;;;;17.50;92.80;;;;;;6123498;23;20350;-70
2023/10/30 02:37:17;;;;;;;;;;;17.40;92.70;;;;;;6123253;23;19913;-70
2023/10/30 02:39:43;;;;;;;;;;;17.40;92.60;;;;;;6124055;23;19901;-79
2023/10/30 02:42:09;;;;;;;;;;;17.50;92.70;;;;;;6123946;23;19907;-79
2023/10/30 02:44:35;;;;;;;;;;;17.50;92.80;;;;;;6123329;23;20354;-79
2023/10/30 02:47:01;;;;;;;;;;;17.40;92.80;;;;;;6123859;23;19908;-79
2023/10/30 02:49:27;;;;;;;;;;;17.30;92.70;;;;;;6123439;23;20346;-70
2023/10/30 02:51:53;;;;;;;;;;;17.50;92.80;;;;;;6124112;23;19901;-79
2023/10/30 02:54:19;;;;;;;;;;;17.40;92.80;;;;;;6123542;23;19972;-78
2023/10/30 02:56:45;;;;;;;;;;;17.60;92.80;;;;;;6123842;23;19901;-78
2023/10/30 02:59:12;;;;;;;;;;;17.40;92.90;;;;;;6123722;23;19901;-79
2023/10/30 03:01:38;;;;;;;;;;;17.40;92.60;;;;;;6123578;23;20317;-79
2023/10/30 03:04:04;;;;;;;;;;;17.50;92.90;;;;;;6123714;23;19928;-79
2023/10/30 03:06:30;;;;;;;;;;;17.30;92.70;;;;;;6125693;23;19901;-70
2023/10/30 03:08:58;;;;;;;;;;;17.40;92.90;;;;;;6124945;23;20453;-69
2023/10/30 03:11:24;;;;;;;;;;;17.40;92.70;;;;;;6125262;23;20265;-69
2023/10/30 03:13:49;;;;;;;;;;;17.30;92.80;;;;;;6125390;23;19901;-69
2023/10/30 03:16:17;;;;;;;;;;;17.30;92.90;;;;;;6125471;23;19901;-70
2023/10/30 03:18:43;;;;;;;;;;;17.40;92.90;;;;;;6125146;23;19913;-79
2023/10/30 03:21:09;;;;;;;;;;;17.40;92.90;;;;;;6125405;23;20317;-79
2023/10/30 03:23:35;;;;;;;;;;;17.20;92.80;;;;;;6125070;23;19905;-79
2023/10/30 03:26:01;;;;;;;;;;;17.30;92.90;;;;;;6125135;23;19905;-79
2023/10/30 03:28:27;;;;;;;;;;;17.40;93.00;;;;;;6125032;23;19917;-79
2023/10/30 03:30:53;;;;;;;;;;;17.30;92.90;;;;;;6134820;23;19904;-79
2023/10/30 03:33:20;;;;;;;;;;;17.40;92.80;;;;;;6124755;23;19901;-79
2023/10/30 03:35:46;;;;;;;;;;;17.20;92.70;;;;;;6125695;23;19935;-79
2023/10/30 03:38:14;;;;;;;;;;;17.30;93.00;;;;;;6125195;23;19912;-79
2023/10/30 03:40:40;;;;;;;;;;;17.40;92.90;;;;;;6124955;23;19932;-79
2023/10/30 03:43:06;;;;;;;;;;;17.30;92.90;;;;;;6125108;23;19959;-79
2023/10/30 03:45:32;;;;;;;;;;;17.40;92.90;;;;;;6124821;23;20295;-79
2023/10/30 03:47:58;;;;;;;;;;;17.20;92.90;;;;;;6124868;23;19956;-70
2023/10/30 03:50:24;;;;;;;;;;;17.30;93.00;;;;;;6125163;23;19901;-70
2023/10/30 03:52:51;;;;;;;;;;;17.30;92.90;;;;;;6125018;23;19901;-69
2023/10/30 03:55:17;;;;;;;;;;;17.20;92.90;;;;;;6125030;23;19920;-70
2023/10/30 03:57:43;;;;;;;;;;;17.30;92.90;;;;;;6124485;23;20380;-69
2023/10/30 04:00:10;;;;;;;;;;;17.20;92.80;;;;;;6124466;23;19900;-69
2023/10/30 04:02:36;;;;;;;;;;;17.10;92.80;;;;;;6125207;23;19901;-70
2023/10/30 04:05:02;;;;;;;;;;;17.30;93.00;;;;;;6125387;23;19901;-79
2023/10/30 04:07:27;;;;;;;;;;;17.30;92.90;;;;;;6124979;23;19905;-79
2023/10/30 04:09:54;;;;;;;;;;;17.30;93.00;;;;;;6124596;23;19908;-78
2023/10/30 04:12:20;;;;;;;;;;;17.20;92.80;;;;;;6124822;23;19980;-79
2023/10/30 04:14:46;;;;;;;;;;;17.20;92.90;;;;;;6124618;23;19927;-70
2023/10/30 04:17:12;;;;;;;;;;;16.70;92.60;;;;;;6124807;23;19909;-79
2023/10/30 04:19:38;;;;;;;;;;;16.80;92.90;;;;;;6124676;23;19911;-78
2023/10/30 04:22:04;;;;;;;;;;;17.30;93.00;;;;;;6124816;23;19932;-78
2023/10/30 04:24:31;;;;;;;;;;;17.20;93.10;;;;;;6124687;23;19901;-79
2023/10/30 04:26:57;;;;;;;;;;;17.20;92.90;;;;;;6124572;23;20270;-78
2023/10/30 04:29:23;;;;;;;;;;;17.30;93.10;;;;;;6124431;23;19971;-79
2023/10/30 04:31:49;;;;;;;;;;;17.20;93.20;;;;;;6099471;23;19901;-78
2023/10/30 04:34:15;;;;;;;;;;;17.20;93.10;;;;;;6124580;23;19922;-79
2023/10/30 04:36:41;;;;;;;;;;;17.30;93.30;;;;;;6124223;23;19907;-78
2023/10/30 04:39:09;;;;;;;;;;;17.20;93.20;;;;;;6124197;23;19984;-78
2023/10/30 04:41:34;;;;;;;;;;;17.20;93.20;;;;;;6124232;23;20334;-79
2023/10/30 04:44:01;;;;;;;;;;;17.20;93.10;;;;;;6124725;23;20261;-69
2023/10/30 04:46:26;;;;;;;;;;;17.20;93.30;;;;;;6124888;23;19900;-70
2023/10/30 04:48:52;;;;;;;;;;;17.20;93.20;;;;;;6124143;23;19951;-69
2023/10/30 04:51:18;;;;;;;;;;;17.10;93.30;;;;;;6124545;23;19975;-69
2023/10/30 04:53:44;;;;;;;;;;;17.20;93.30;;;;;;6124348;23;19979;-69
2023/10/30 04:56:10;;;;;;;;;;;17.20;93.40;;;;;;6124311;23;20032;-69
2023/10/30 04:58:36;;;;;;;;;;;17.20;93.30;;;;;;6124435;23;20275;-69
2023/10/30 05:06:43;;;;;;;;;;;17.20;91.00;;;;;;6135823;23;19937;-68
2023/10/30 05:09:09;;;;;;;;;;;17.30;91.00;;;;;;6125900;23;19901;-67
2023/10/30 05:11:41;;;;;;;;;;;17.10;93.20;;;;;;6125709;23;19976;-68
